Keisuke Nakata

Olheiro - Vegalta Sendai
20 Fev 2028
Domingo
Processo

Personalidade

Adaptabilidade (9) Ambição (5) Controvérsia (10) Lealdade (11) Pressão (20) Profissionalismo (1) Espírito Esportivo (12) Temperamento (6)

Perfil

Estilo de Treinamento Democrático
Licença Continental Pro
Determinação 4
Gestão de Pessoas 6
Motivação 7
Disciplina 10
Satisfação no Trabalho
100%
Fadiga
0%
Função Olheiro
Salário 75.1K p/s
Contrato 14.03.2029

Desempenho

Comportamento Bom
Eficácia do Treinamento
43%
Desenvolvimento do Jogador
35%
Prevenção de Lesões
30%
Implementação Tática
50%

Eventos Recentes

Participou de uma reunião de recrutamento agora
Recomendou um alvo de transferência agora
Recomendou um alvo de transferência agora
Recomendou um alvo de transferência 7d atrás
Recomendou um alvo de transferência 7d atrás
Recomendou um alvo de transferência 7d atrás
Recomendou um alvo de transferência 7d atrás
Participou de uma reunião de recrutamento 7d atrás

Monitorando agora

141
Jogador Clube Status Habilidade Confiança Observado Última observação Último voto
Ryo Matsumura Vissel Kobe Ativo 100 / 100 58% 1 24.01.2028 Aprovar
Ren Komatsu Vissel Kobe Ativo 108 / 112 58% 1 16.08.2027 Aprovar
Sampson Dweh Mallorca Ativo 133 / 134 66% 1 22.07.2027 Aprovar
Seedy Jatta Austin FC Ativo 118 / 122 67% 1 22.07.2027 Aprovar
Xavier Amaechi Plymouth Argyle Ativo 126 / 118 40% 2 19.07.2027 -
Elijah Adebayo Luton Town Ativo 129 / 128 40% 2 19.07.2027 -
Leighton Clarkson Blackpool Ativo 119 / 121 40% 1 19.07.2027 -
Walid Cheddira Avellino Ativo 135 / 136 40% 1 19.07.2027 -
Rui Costa Port Vale Ativo 101 / 99 40% 2 18.07.2027 -
Bradley Fink Wycombe Wanderers Ativo 99 / 121 40% 1 18.07.2027 -
Camillo Tavernelli Arezzo Ativo 134 / 106 40% 3 16.07.2027 -
Giuseppe Sibilli Juve Stabia Ativo 120 / 110 40% 1 16.07.2027 -
Christian Saydee Wigan Athletic Ativo 129 / 114 40% 5 14.07.2027 -
Brodie Spencer Oxford United Ativo 119 / 118 40% 2 14.07.2027 -
Dale Taylor Blackpool Ativo 101 / 119 40% 1 14.07.2027 -
Marcus Browne AFC Wimbledon Ativo 95 / 116 40% 2 12.07.2027 -
Stephen Humphrys Bradford City Ativo 109 / 112 40% 1 12.07.2027 -
Cian Ashford Cardiff City Ativo 135 / 125 40% 1 12.07.2027 -
Jonathan Varane Queens Park Rangers Ativo 131 / 135 40% 1 12.07.2027 -
Andri Guðjohnsen Blackburn Rovers Ativo 115 / 134 40% 1 10.07.2027 -
Rocco Vata Watford Ativo 122 / 135 40% 4 09.07.2027 -
Giacomo Zecca Torres Ativo 95 / 106 40% 3 09.07.2027 -
Adrian Segecic Portsmouth Ativo 130 / 112 40% 1 09.07.2027 -
Aaron Morley Wycombe Wanderers Ativo 105 / 112 40% 1 09.07.2027 -
Abu Kamara Portsmouth Ativo 117 / 111 40% 2 07.07.2027 -
Moussa Yeo Swansea City Ativo 133 / 128 40% 2 07.07.2027 -
Pelle Mattsson Norwich City Ativo 123 / 125 40% 1 07.07.2027 -
Josh Coburn Millwall Ativo 121 / 115 40% 6 06.07.2027 -
Tyreece Campbell Charlton Athletic Ativo 113 / 131 40% 3 06.07.2027 -
Othmane Maamma Watford Ativo 121 / 139 40% 1 30.06.2027 -
Tyler Roberts Mansfield Town Ativo 93 / 105 40% 1 28.06.2027 -
Callum Lang Preston Ativo 122 / 111 40% 2 27.06.2027 -
Stephen Amankona Aduana Stars Ativo 80 / 80 40% 1 25.06.2027 -
Jack Diamond Stockport County Ativo 113 / 109 40% 1 25.06.2027 -
Stiven Shpendi Empoli Ativo 130 / 128 40% 1 24.06.2027 -
Melker Widell Swansea City Ativo 134 / 115 40% 1 24.06.2027 -
Giorgi Chakvetadze Watford Ativo 144 / 136 40% 1 21.06.2027 -
Zach Ryan Ismaily Ativo 102 / 109 40% 1 17.06.2027 -
John Yeboah Venezia Ativo 125 / 112 40% 3 16.06.2027 -
Malik Mothersille Stockport County Ativo 110 / 107 40% 4 16.06.2027 -
Ra'ees Bangura-Williams Millwall Ativo 134 / 113 40% 1 16.06.2027 -
Taylor Richards Crawley Town Ativo 97 / 99 40% 1 16.06.2027 -
Marcus Ifill Crewe Alexandra Ativo 112 / 112 40% 1 15.06.2027 -
Sam Nombe Milton Keynes Dons Ativo 108 / 110 40% 5 13.06.2027 -
Aaron Drinan Swindon Town Ativo 120 / 107 40% 2 13.06.2027 -
Marezi Portsmouth Ativo 131 / 131 40% 3 11.06.2027 -
Sam Bell Bristol City Ativo 133 / 112 40% 6 09.06.2027 -
Sam Greenwood Bristol City Ativo 129 / 130 40% 2 07.06.2027 -
Daniel Kyerewaa Reading Ativo 125 / 118 40% 3 06.06.2027 -
Bernat Guiu Virtus Entella Ativo 127 / 109 40% 1 06.06.2027 -
Declan Frith Peterborough United Ativo 101 / 108 40% 1 06.06.2027 -
Ryan Graydon Salford City Ativo 91 / 104 40% 1 04.06.2027 -
Mathias Kvistgaarden Norwich City Ativo 112 / 132 40% 1 03.06.2027 -
Carlton Morris Derby County Ativo 123 / 121 40% 2 01.06.2027 -
Augustus Kargbo Blackburn Rovers Ativo 124 / 123 40% 1 31.05.2027 -
Aaron Collins Milton Keynes Dons Ativo 130 / 119 40% 2 30.05.2027 -
Giuseppe Panico Foggia Ativo 117 / 107 40% 2 30.05.2027 -
Oli McBurnie Hull City Ativo 132 / 130 40% 2 29.05.2027 -
Ettore Gliozzi Mantova Ativo 132 / 114 40% 1 29.05.2027 -
Matty Stevens AFC Wimbledon Ativo 87 / 101 40% 2 28.05.2027 -
Nathan Moriah-Welsh Mansfield Town Ativo 125 / 108 40% 1 26.05.2027 -
Marco Tumminello Benevento Ativo 100 / 123 40% 1 21.05.2027 -
Lorent Tolaj Plymouth Argyle Ativo 123 / 126 40% 1 21.05.2027 -
Mees Rijks Bristol Rovers Ativo 100 / 104 40% 1 16.05.2027 -
Martin Sekulić Ural Ativo 102 / 120 40% 1 14.05.2027 -
Darragh Burns Grimsby Town Ativo 91 / 98 40% 1 12.05.2027 -
Nicolas Madsen Queens Park Rangers Ativo 145 / 118 40% 2 11.05.2027 -
Aidomo Emakhu Oxford United Ativo 124 / 133 40% 3 10.05.2027 -
Calum Agius Crewe Alexandra Ativo 89 / 110 40% 1 08.05.2027 -
Matteo Rover Reggiana Ativo 113 / 121 40% 1 05.05.2027 -
Richard Koné Queens Park Rangers Ativo 107 / 124 40% 2 03.05.2027 -
Edoardo Bove Watford Ativo 117 / 131 40% 2 30.04.2027 -
Wandile Duba ASO Chlef Ativo 116 / 99 40% 1 30.04.2027 -
Simone Mazzocchi Cosenza Ativo 125 / 122 40% 1 26.04.2027 -
Filippo Distefano Empoli Ativo 103 / 120 40% 1 25.04.2027 -
Don Bolsius Ascoli Ativo 119 / 113 40% 1 24.04.2027 -
Terry Devlin Portsmouth Ativo 125 / 117 40% 1 24.04.2027 -
Giorgi Kvernadze Frosinone Ativo 117 / 119 40% 1 22.04.2027 -
Mitchel Bakker Modena Ativo 121 / 128 40% 1 20.04.2027 -
David Turnbull Cardiff City Ativo 112 / 116 40% 1 20.04.2027 -
Brian De Keersmaecker Oxford United Ativo 110 / 124 40% 2 17.04.2027 Mais informações
Luca Moro Padova Ativo 106 / 116 40% 1 17.04.2027 -
Alberto Cerri Cesena Ativo 126 / 121 40% 1 16.04.2027 -
Job Ochieng Real Sociedad Ativo 116 / 111 40% 1 14.04.2027 -
Patrick Cutrone Monza Ativo 146 / 121 40% 2 13.04.2027 -
Yousef Salech Cardiff City Ativo 139 / 116 40% 2 13.04.2027 -
Jacques Ekomié Wrexham Ativo 144 / 139 40% 1 13.04.2027 -
John McAtee Leyton Orient Ativo 94 / 108 40% 1 11.04.2027 -
Armstrong Oko-Flex Levski Ativo 113 / 115 40% 1 06.04.2027 -
Mikey Johnston West Bromwich Albion Ativo 107 / 129 40% 1 04.04.2027 -
Samuel Edozie Southampton Ativo 114 / 131 40% 1 03.04.2027 -
Harrison Burrows Sheffield United Ativo 123 / 135 40% 2 01.04.2027 -
Dejan Zukić Vojvodina Ativo 115 / 132 40% 1 01.04.2027 -
Willy Agada Hapoel Haifa Ativo 121 / 112 40% 1 31.03.2027 -
Juan Bezerra Zamalek Ativo 124 / 109 40% 1 31.03.2027 -
Dennis Cirkin Queens Park Rangers Ativo 133 / 136 40% 1 28.03.2027 -
George Earthy Reading Ativo 123 / 118 40% 1 25.03.2027 -
Amar Memić Viktoria Plzen Ativo 123 / 133 40% 1 24.03.2027 -
Joseph Hungbo Wigan Athletic Ativo 91 / 111 40% 1 24.03.2027 -
Liam Thompson Mansfield Town Ativo 106 / 122 40% 1 17.03.2027 -
Yuta Toyokawa Omiya Ardija Ativo 112 / 101 55% 1 08.02.2027 -
Tomoya Koyamatsu Nagoya Grampus Ativo 118 / 116 55% 1 01.02.2027 -
Peter Valjent FK Senica Ativo 121 / 121 40% 2 04.01.2027 -
Callum O'Hare Sheffield United Ativo 122 / 121 40% 1 04.01.2027 -
Tyrese Campbell Sheffield United Ativo 146 / 119 40% 1 02.01.2027 -
Yuki Ohashi Hapoel Tel Aviv Ativo 110 / 114 40% 1 31.12.2026 -
Leo Ceara Kashima Antlers Ativo 131 / 128 40% 5 05.12.2026 -
Aleksandar Cavric Kashima Antlers Ativo 128 / 125 40% 2 05.12.2026 -
Ilyas Ansah Hull City Ativo 122 / 129 40% 1 28.11.2026 -
Zian Flemming Ipswich Town Ativo 148 / 141 40% 1 28.11.2026 -
Fiete Arp OB Ativo 136 / 127 40% 1 27.11.2026 -
Michael Baidoo Plymouth Argyle Ativo 109 / 129 40% 1 26.11.2026 -
Rodrigo Huescas FC Copenhagen Ativo 133 / 144 40% 1 26.11.2026 -
Patrik Mijić HNK Gorica Ativo 127 / 99 40% 1 26.11.2026 -
Gonzalo Carneiro Sparta Prague Ativo 128 / 118 40% 1 26.11.2026 -
Koki Ogawa Jubilo Iwata Ativo 125 / 115 40% 1 24.11.2026 -
Brooke Norton-Cuffy Hull City Ativo 141 / 149 40% 1 22.11.2026 -
Ethan Pye Stockport County Ativo 119 / 112 40% 1 22.11.2026 -
Bertrand Traoré Sunderland Ativo 124 / 146 40% 1 21.11.2026 -
Takuma Asano Sanfrecce Hiroshima Ativo 122 / 133 40% 1 19.11.2026 -
Daiya Tono Yokohama F. Marinos Ativo 130 / 122 40% 1 13.11.2026 -
David Miculescu FCSB Ativo 112 / 106 40% 1 13.11.2026 -
Callum Robinson Poltava Ativo 108 / 124 40% 1 12.11.2026 -
Marko Livaja Hajduk Split Ativo 150 / 123 40% 1 12.11.2026 -
Isaac Matondo Koper Ativo 126 / 110 40% 1 11.11.2026 -
Ola Solbakken FC Nordsjaelland Ativo 111 / 124 40% 1 07.11.2026 -
Samuel Adegbenro FC Copenhagen Ativo 115 / 127 40% 1 05.11.2026 -
Ivan Giraldo Valencia Ativo 132 / 128 40% 1 03.11.2026 -
Jhon Córdoba Krasnodar Ativo 154 / 137 40% 1 27.10.2026 -
Ivo Mammini Beitar Jerusalem Ativo 127 / 107 40% 1 16.10.2026 -
Derik Lacerda Kawasaki Frontale Ativo 132 / 116 40% 1 14.10.2026 -
Thiago Santana Urawa Reds Ativo 119 / 111 40% 1 14.10.2026 -
Yusuke Segawa Kashiwa Reysol Ativo 136 / 131 40% 2 11.10.2026 -
Matej Poplatnik Ativo 109 / 122 40% 1 10.10.2026 -
Sébastien Haller Sanfrecce Hiroshima Ativo 132 / 115 40% 1 08.10.2026 -
Rhian Brewster Oleksandriya Ativo 123 / 125 40% 1 07.10.2026 -
Diego León Manchester United Ativo 102 / 121 40% 1 11.09.2026 -
Diego García Malmo FF Ativo 138 / 120 40% 1 10.09.2026 -
Soki Tamura Shonan Bellmare Ativo 87 / 94 55% 1 17.08.2026 -
Mutsuki Kato Sanfrecce Hiroshima Ativo 124 / 127 40% 1 04.08.2026 -
Nicolai Vallys FC Tokyo Ativo 123 / 128 40% 1 04.08.2026 -